KIAH

George Bush Intercontinental / Houston Airport

Houston, Texas, USA
METAR KIAH 242053Z 16004KT 10SM SCT045 SCT080 SCT250 32/22 A2986 RMK AO2 SLP111 T03170217 57023
Observed Flight Rules
Sep-24 @ 20:53 UTC (31 minutes ago) Visual Flight Rules
Wind Visibility Clouds
160° at 4 knots 10 miles
  • Scattered at 4,500' AGL
  • Scattered at 8,000' AGL
  • Scattered at 25,000' AGL
Temperatures Readings
Current 32°C / 90°F
Dewpoint 22°C / 72°F
Humidity 55%
Altimeter 29.86" Hg
Pressure 1011.1 hPa
Elevation 36
METAR KIAH 242053Z 16004KT 10SM SCT045 SCT080 SCT250 32/22 A2986 RMK AO2 SLP111 T03170217 57023
Observed Flight Rules
Sep-24 @ 20:53 UTC
(31 minutes ago)
VFR
Wind Visibility
160° at 4 knots 10 miles
Clouds
  • Scattered at 4,500' AGL
  • Scattered at 8,000' AGL
  • Scattered at 25,000' AGL
Temperature Dewpoint
32°C / 90°F 22°C / 72°F
Humidity Altimeter Pressure
55% 29.86" Hg 1011.1 hPa